Time;durP1;ratioP1;P1;durP2;ratioP2;P2;SDS_P1;SDS_P2;PMS_P1;PMS_P2;Temp;Humidity;BMP_temperature;BMP_pressure;BME280_temperature;BME280_humidity;BME280_pressure;Samples;Min_cycle;Max_cycle;Signal;HPM_P1;HPM_P2
2023/01/14 00:18:43;;;;;;;19.08;5.50;;;;;;;;;;6061649;23;20027;-51
2023/01/14 00:21:17;;;;;;;27.05;5.88;;;;;;;;;;6060186;23;20109;-51
2023/01/14 00:23:54;;;;;;;30.83;6.20;;;;;;;;;;6061603;23;20042;-50
2023/01/14 00:26:22;;;;;;;32.88;5.43;;;;;;;;;;6062170;23;20050;-60
2023/01/14 00:28:55;;;;;;;37.05;6.15;;;;;;;;;;6061704;23;20049;-74
2023/01/14 00:31:23;;;;;;;16.55;5.93;;;;;;;;;;6060715;23;20393;-74
2023/01/14 00:33:59;;;;;;;26.95;6.38;;;;;;;;;;6061550;23;20370;-73
2023/01/14 00:36:27;;;;;;;23.23;5.68;;;;;;;;;;6060882;23;20054;-74
2023/01/14 00:38:54;;;;;;;24.25;6.45;;;;;;;;;;6060995;23;20118;-73
2023/01/14 00:41:28;;;;;;;24.95;6.25;;;;;;;;;;6059839;23;20138;-73
2023/01/14 00:43:56;;;;;;;21.92;6.40;;;;;;;;;;6062022;23;20050;-73
2023/01/14 00:46:32;;;;;;;27.90;6.28;;;;;;;;;;6061234;23;20046;-54
2023/01/14 00:49:00;;;;;;;23.65;5.78;;;;;;;;;;6060749;23;20026;-54
2023/01/14 00:51:33;;;;;;;24.52;5.95;;;;;;;;;;6060377;23;20098;-52
2023/01/14 00:54:01;;;;;;;28.10;6.45;;;;;;;;;;6061427;23;20134;-53
2023/01/14 00:56:29;;;;;;;26.90;5.82;;;;;;;;;;6061062;23;20027;-53
2023/01/14 00:59:03;;;;;;;18.52;5.28;;;;;;;;;;6060797;23;20026;-52
2023/01/14 01:01:30;;;;;;;24.85;5.65;;;;;;;;;;6035493;23;20114;-73
2023/01/14 01:04:04;;;;;;;24.10;5.53;;;;;;;;;;6061026;23;20477;-71
2023/01/14 01:06:31;;;;;;;26.98;6.25;;;;;;;;;;6060592;23;20023;-70
2023/01/14 01:09:00;;;;;;;20.63;5.28;;;;;;;;;;6060145;23;20097;-70
2023/01/14 01:11:33;;;;;;;30.77;5.22;;;;;;;;;;6060541;23;20106;-71
2023/01/14 01:14:01;;;;;;;19.02;4.80;;;;;;;;;;6061075;23;20054;-70
2023/01/14 01:16:47;;;;;;;21.83;4.60;;;;;;;;;;6068786;23;20110;-71
2023/01/14 01:19:22;;;;;;;29.08;5.85;;;;;;;;;;6089404;23;20129;-74
2023/01/14 01:21:55;;;;;;;30.42;5.88;;;;;;;;;;6088576;23;20022;-70
2023/01/14 01:24:29;;;;;;;29.75;6.30;;;;;;;;;;6089868;23;20058;-69
2023/01/14 01:26:57;;;;;;;38.28;7.00;;;;;;;;;;6088994;23;20025;-69
2023/01/14 01:29:24;;;;;;;36.22;6.72;;;;;;;;;;6088867;23;20033;-69
2023/01/14 01:31:58;;;;;;;39.42;7.00;;;;;;;;;;6090084;23;20610;-69
2023/01/14 01:34:25;;;;;;;;;;;;;;;;;;6089778;23;20028;-69
2023/01/14 01:36:59;;;;;;;30.50;6.38;;;;;;;;;;6088705;23;19917;-69
2023/01/14 01:39:26;;;;;;;29.85;5.97;;;;;;;;;;6088731;23;20105;-49
2023/01/14 01:41:53;;;;;;;40.72;6.50;;;;;;;;;;6089218;23;20105;-59
2023/01/14 01:44:26;;;;;;;33.42;5.90;;;;;;;;;;6089316;23;20026;-58
2023/01/14 01:46:54;;;;;;;29.23;6.47;;;;;;;;;;6088742;23;20086;-59
2023/01/14 01:49:30;;;;;;;27.67;6.38;;;;;;;;;;6088596;23;20034;-59
2023/01/14 01:51:57;;;;;;;34.15;7.22;;;;;;;;;;6089071;23;20026;-58
2023/01/14 01:54:33;;;;;;;40.25;7.93;;;;;;;;;;6090140;23;20031;-59
2023/01/14 01:57:01;;;;;;;42.45;8.63;;;;;;;;;;6088226;23;20026;-46
2023/01/14 01:59:40;;;;;;;43.13;7.65;;;;;;;;;;6088343;23;20668;-60
2023/01/14 02:02:08;;;;;;;53.35;8.05;;;;;;;;;;6089122;23;20037;-60
2023/01/14 02:04:35;;;;;;;29.92;5.45;;;;;;;;;;6089252;23;20018;-60
2023/01/14 02:07:20;;;;;;;28.50;5.20;;;;;;;;;;6087340;23;20221;-60
2023/01/14 02:09:48;;;;;;;28.98;5.15;;;;;;;;;;6090109;23;20413;-60
2023/01/14 02:12:27;;;;;;;21.40;4.88;;;;;;;;;;6088197;23;20026;-60
2023/01/14 02:15:10;;;;;;;14.55;3.55;;;;;;;;;;6089987;23;20058;-58
2023/01/14 02:17:43;;;;;;;;;;;;;;;;;;6089416;23;20105;-48
2023/01/14 02:20:25;;;;;;;20.08;3.30;;;;;;;;;;6062675;23;20228;-52
2023/01/14 02:23:05;;;;;;;23.07;3.77;;;;;;;;;;6088996;23;20472;-52
2023/01/14 02:25:51;;;;;;;11.93;2.60;;;;;;;;;;6089309;23;20247;-52
2023/01/14 02:28:44;;;;;;;17.65;2.72;;;;;;;;;;6088398;23;20555;-49
2023/01/14 02:31:17;;;;;;;9.77;2.72;;;;;;;;;;6089465;23;20027;-52
2023/01/14 02:33:52;;;;;;;6.78;2.53;;;;;;;;;;6089865;23;20026;-60
2023/01/14 02:36:28;;;;;;;13.90;2.38;;;;;;;;;;6087539;23;20026;-55
2023/01/14 02:39:04;;;;;;;4.38;2.10;;;;;;;;;;6086594;23;20058;-55
2023/01/14 02:44:32;;;;;;;7.65;1.95;;;;;;;;;;6089667;23;20026;-52
2023/01/14 02:47:11;;;;;;;5.63;2.15;;;;;;;;;;6089855;23;20700;-52
2023/01/14 02:49:47;;;;;;;3.92;1.80;;;;;;;;;;6087884;23;20101;-54
2023/01/14 02:52:21;;;;;;;4.18;1.85;;;;;;;;;;6088982;23;20097;-55
2023/01/14 02:54:55;;;;;;;5.10;1.90;;;;;;;;;;6089443;23;20096;-60
2023/01/14 02:57:37;;;;;;;6.63;2.22;;;;;;;;;;6088272;23;20101;-60
2023/01/14 03:00:22;;;;;;;9.07;2.58;;;;;;;;;;6087883;23;20105;-61
2023/01/14 03:03:03;;;;;;;12.73;2.58;;;;;;;;;;6087853;23;20029;-60
2023/01/14 03:05:42;;;;;;;11.93;2.33;;;;;;;;;;6088259;23;20507;-61
2023/01/14 03:08:24;;;;;;;6.75;2.45;;;;;;;;;;6089547;23;20025;-61
2023/01/14 03:11:02;;;;;;;7.95;2.08;;;;;;;;;;6089363;23;20455;-50
2023/01/14 03:13:51;;;;;;;6.32;2.05;;;;;;;;;;6089186;23;20097;-58
2023/01/14 03:16:27;;;;;;;9.38;1.80;;;;;;;;;;6087617;23;20425;-59
2023/01/14 03:19:28;;;;;;;7.85;2.08;;;;;;;;;;6089425;23;20345;-59
2023/01/14 03:21:56;;;;;;;8.93;2.20;;;;;;;;;;6088176;23;20022;-59
2023/01/14 03:24:33;;;;;;;9.55;2.13;;;;;;;;;;6091257;23;20023;-59
2023/01/14 03:27:03;;;;;;;9.45;2.05;;;;;;;;;;6090391;23;20078;-59
2023/01/14 03:29:44;;;;;;;7.60;2.17;;;;;;;;;;6089620;23;20164;-60
2023/01/14 03:32:22;;;;;;;12.32;2.30;;;;;;;;;;6091463;23;20026;-51
2023/01/14 03:34:59;;;;;;;9.95;1.70;;;;;;;;;;6090803;23;20042;-48
2023/01/14 03:37:33;;;;;;;6.45;1.52;;;;;;;;;;6090577;23;20051;-53
2023/01/14 03:40:02;;;;;;;5.00;1.05;;;;;;;;;;6090690;23;20058;-53
2023/01/14 03:42:33;;;;;;;4.72;1.10;;;;;;;;;;6063242;23;20022;-52
2023/01/14 03:45:19;;;;;;;4.83;1.20;;;;;;;;;;6089438;23;20026;-53
2023/01/14 03:47:53;;;;;;;3.70;1.10;;;;;;;;;;6089143;23;20357;-53
2023/01/14 03:50:20;;;;;;;;;;;;;;;;;;6092457;23;20164;-69
2023/01/14 03:52:59;;;;;;;3.47;0.95;;;;;;;;;;6090786;23;20011;-69
2023/01/14 03:55:35;;;;;;;5.20;1.10;;;;;;;;;;6088807;23;20411;-68
2023/01/14 03:58:26;;;;;;;4.15;1.33;;;;;;;;;;6090122;23;20097;-69
2023/01/14 04:00:58;;;;;;;6.82;1.20;;;;;;;;;;6089861;23;20721;-69
2023/01/14 04:03:32;;;;;;;;;;;;;;;;;;6089898;23;20027;-69
2023/01/14 04:05:59;;;;;;;2.80;1.35;;;;;;;;;;6091188;23;19975;-74
2023/01/14 04:08:32;;;;;;;13.07;2.63;;;;;;;;;;6090995;23;20097;-50
2023/01/14 04:11:00;;;;;;;5.70;1.42;;;;;;;;;;6090845;23;20034;-54
2023/01/14 04:16:32;;;;;;;14.25;1.42;;;;;;;;;;6089254;23;20054;-54
2023/01/14 04:19:07;;;;;;;4.07;1.42;;;;;;;;;;6060774;23;20031;-54
2023/01/14 04:21:40;;;;;;;8.18;1.25;;;;;;;;;;6061264;23;20109;-52
2023/01/14 04:24:08;;;;;;;;;;;;;;;;;;6061674;23;20054;-72
2023/01/14 04:26:35;;;;;;;3.25;0.95;;;;;;;;;;6061956;23;20008;-73
2023/01/14 04:29:08;;;;;;;5.47;1.15;;;;;;;;;;6061317;23;20065;-73
2023/01/14 04:31:36;;;;;;;4.80;1.00;;;;;;;;;;6062206;23;20018;-73
2023/01/14 04:34:10;;;;;;;5.35;1.20;;;;;;;;;;6060077;23;20126;-74
2023/01/14 04:36:37;;;;;;;1.52;0.65;;;;;;;;;;6061779;23;20057;-73
2023/01/14 04:39:04;;;;;;;2.53;0.77;;;;;;;;;;6059932;23;20549;-73
2023/01/14 04:44:23;;;;;;;5.53;1.02;;;;;;;;;;6062215;23;20091;-73
2023/01/14 04:46:57;;;;;;;2.63;0.80;;;;;;;;;;6060944;23;20046;-73
2023/01/14 04:49:25;;;;;;;6.50;0.88;;;;;;;;;;6061079;23;20122;-72
2023/01/14 04:51:52;;;;;;;5.72;0.98;;;;;;;;;;6061282;23;20110;-73
2023/01/14 04:54:25;;;;;;;8.52;1.00;;;;;;;;;;6060861;23;20449;-70
2023/01/14 04:56:53;;;;;;;6.57;0.82;;;;;;;;;;6060534;23;20033;-74
2023/01/14 04:59:20;;;;;;;5.38;1.00;;;;;;;;;;6061164;23;20548;-74
2023/01/14 05:01:53;;;;;;;12.23;1.30;;;;;;;;;;6059700;23;20037;-61
2023/01/14 05:04:21;;;;;;;;;;;;;;;;;;6060297;23;20019;-52
2023/01/14 05:06:55;;;;;;;5.40;1.00;;;;;;;;;;6060319;23;20008;-52
2023/01/14 05:09:22;;;;;;;1.98;0.90;;;;;;;;;;6060914;23;20023;-52
2023/01/14 05:11:49;;;;;;;16.15;1.70;;;;;;;;;;6060674;23;20058;-52
2023/01/14 05:14:22;;;;;;;4.03;0.90;;;;;;;;;;6061692;23;20110;-52
2023/01/14 05:16:50;;;;;;;5.80;0.95;;;;;;;;;;6064202;23;20022;-52
2023/01/14 05:19:30;;;;;;;3.60;1.00;;;;;;;;;;6089459;23;20069;-51
2023/01/14 05:21:57;;;;;;;3.92;0.98;;;;;;;;;;6088202;23;20056;-53
2023/01/14 05:24:32;;;;;;;12.63;1.10;;;;;;;;;;6089142;23;20050;-54
2023/01/14 05:26:59;;;;;;;6.53;1.30;;;;;;;;;;6089233;23;20460;-54
2023/01/14 05:29:26;;;;;;;8.80;1.35;;;;;;;;;;6090869;23;20054;-52
2023/01/14 05:31:59;;;;;;;10.13;1.73;;;;;;;;;;6088112;23;20101;-56
2023/01/14 05:34:29;;;;;;;5.55;1.20;;;;;;;;;;6089906;23;20026;-54
2023/01/14 05:37:02;;;;;;;12.13;1.48;;;;;;;;;;6089329;23;20048;-70
2023/01/14 05:39:30;;;;;;;9.15;1.52;;;;;;;;;;6087387;23;20033;-59
2023/01/14 05:47:35;;;;;;;12.35;1.38;;;;;;;;;;6088692;23;20029;-59
2023/01/14 05:50:10;;;;;;;12.43;1.40;;;;;;;;;;6089147;23;20022;-59
2023/01/14 05:52:37;;;;;;;11.05;1.45;;;;;;;;;;6088113;23;20026;-59
2023/01/14 05:55:11;;;;;;;6.25;1.80;;;;;;;;;;6088997;23;20389;-65
2023/01/14 05:57:38;;;;;;;8.20;1.42;;;;;;;;;;6088423;23;20443;-61
2023/01/14 06:00:06;;;;;;;4.28;1.90;;;;;;;;;;6089058;23;20093;-60
2023/01/14 06:08:17;;;;;;;9.20;1.48;;;;;;;;;;6088718;23;20026;-61
2023/01/14 06:10:45;;;;;;;8.95;1.38;;;;;;;;;;6090055;23;20113;-61
2023/01/14 06:13:21;;;;;;;6.88;1.60;;;;;;;;;;6088203;23;20432;-61
2023/01/14 06:15:51;;;;;;;19.60;2.28;;;;;;;;;;6089063;23;20025;-45
2023/01/14 06:18:27;;;;;;;16.65;1.30;;;;;;;;;;6086548;23;20030;-50
2023/01/14 06:21:10;;;;;;;6.68;1.23;;;;;;;;;;6089309;23;20033;-48
2023/01/14 06:23:37;;;;;;;3.15;1.05;;;;;;;;;;6089361;23;20576;-50
2023/01/14 06:26:12;;;;;;;9.18;1.38;;;;;;;;;;6087975;23;20026;-46
2023/01/14 06:28:39;;;;;;;4.20;1.08;;;;;;;;;;6090351;23;20102;-46
2023/01/14 06:31:19;;;;;;;8.23;1.35;;;;;;;;;;6088103;23;20065;-46
2023/01/14 06:33:53;;;;;;;6.55;1.35;;;;;;;;;;6088745;23;20102;-47
2023/01/14 06:36:20;;;;;;;15.65;2.15;;;;;;;;;;6088667;23;20309;-61
2023/01/14 06:38:54;;;;;;;22.88;2.30;;;;;;;;;;6090090;23;20037;-60
2023/01/14 06:41:21;;;;;;;;;;;;;;;;;;6087903;23;20097;-61
2023/01/14 06:43:48;;;;;;;6.97;1.27;;;;;;;;;;6089300;23;19963;-62
2023/01/14 06:46:23;;;;;;;12.52;1.40;;;;;;;;;;6088330;23;20105;-61
2023/01/14 06:48:50;;;;;;;9.02;1.75;;;;;;;;;;6086559;23;20276;-61
2023/01/14 06:51:25;;;;;;;10.27;1.27;;;;;;;;;;6088999;23;20134;-61
2023/01/14 06:53:53;;;;;;;10.30;1.45;;;;;;;;;;6089886;23;20034;-49
2023/01/14 06:56:21;;;;;;;10.80;1.33;;;;;;;;;;6089162;23;20029;-48
2023/01/14 06:58:55;;;;;;;7.22;1.35;;;;;;;;;;6090229;23;20105;-46
2023/01/14 07:01:22;;;;;;;10.35;1.33;;;;;;;;;;6091022;23;20075;-46
2023/01/14 07:03:57;;;;;;;7.55;1.67;;;;;;;;;;6090255;23;20074;-47
2023/01/14 07:06:24;;;;;;;9.20;1.40;;;;;;;;;;6090855;23;20029;-49
2023/01/14 07:08:51;;;;;;;5.10;1.00;;;;;;;;;;6091085;23;20033;-53
2023/01/14 07:11:25;;;;;;;6.43;1.10;;;;;;;;;;6091321;23;20023;-75
2023/01/14 07:13:52;;;;;;;5.50;0.93;;;;;;;;;;6090999;23;20061;-75
2023/01/14 07:16:26;;;;;;;8.60;1.30;;;;;;;;;;6091110;23;20090;-72
2023/01/14 07:18:59;;;;;;;10.65;1.55;;;;;;;;;;6090042;23;20018;-75
2023/01/14 07:21:34;;;;;;;6.28;1.15;;;;;;;;;;6091197;23;20110;-74
2023/01/14 07:24:01;;;;;;;10.07;1.48;;;;;;;;;;6090984;23;20026;-74
2023/01/14 07:26:28;;;;;;;8.20;1.10;;;;;;;;;;6091430;23;20030;-74
2023/01/14 07:29:02;;;;;;;11.18;1.73;;;;;;;;;;6090864;23;20089;-60
2023/01/14 07:31:29;;;;;;;;;;;;;;;;;;6090791;23;20153;-61
2023/01/14 07:33:56;;;;;;;8.85;1.25;;;;;;;;;;6089937;23;19988;-60
2023/01/14 07:36:30;;;;;;;12.38;1.52;;;;;;;;;;6090721;23;20073;-61
2023/01/14 07:38:58;;;;;;;13.63;1.40;;;;;;;;;;6090313;23;20026;-61
2023/01/14 07:41:32;;;;;;;7.38;1.38;;;;;;;;;;6090781;23;20033;-60
2023/01/14 07:44:00;;;;;;;10.98;2.03;;;;;;;;;;6089924;23;20353;-61
2023/01/14 07:46:27;;;;;;;9.85;1.38;;;;;;;;;;6090441;23;20053;-49
2023/01/14 07:49:02;;;;;;;14.07;1.75;;;;;;;;;;6088875;23;20050;-71
2023/01/14 07:51:29;;;;;;;11.77;2.35;;;;;;;;;;6087792;23;20026;-70
2023/01/14 07:53:56;;;;;;;11.20;1.50;;;;;;;;;;6088984;23;20093;-70
2023/01/14 07:56:30;;;;;;;12.40;1.67;;;;;;;;;;6090785;23;20113;-70
2023/01/14 07:58:57;;;;;;;10.35;1.90;;;;;;;;;;6090298;23;20093;-70
2023/01/14 08:01:31;;;;;;;14.95;1.80;;;;;;;;;;6086394;23;20113;-70
2023/01/14 08:03:59;;;;;;;15.63;2.30;;;;;;;;;;6090317;23;20019;-55
2023/01/14 08:06:26;;;;;;;11.88;2.08;;;;;;;;;;6091620;23;20465;-52
2023/01/14 08:09:02;;;;;;;12.60;1.67;;;;;;;;;;6090986;23;20360;-46
2023/01/14 08:11:30;;;;;;;14.27;1.98;;;;;;;;;;6090745;23;20026;-48
2023/01/14 08:14:04;;;;;;;11.95;2.17;;;;;;;;;;6091742;23;20038;-50
2023/01/14 08:16:31;;;;;;;15.25;2.40;;;;;;;;;;6090063;23;20073;-45
2023/01/14 08:18:58;;;;;;;10.35;2.13;;;;;;;;;;6090335;23;20022;-48
2023/01/14 08:21:39;;;;;;;15.65;2.22;;;;;;;;;;6090717;23;20101;-47
2023/01/14 08:24:06;;;;;;;18.45;2.55;;;;;;;;;;6091101;23;20056;-52
2023/01/14 08:26:41;;;;;;;15.20;2.15;;;;;;;;;;6090275;23;20109;-73
2023/01/14 08:29:08;;;;;;;11.93;1.83;;;;;;;;;;6087795;23;20037;-74
2023/01/14 08:31:40;;;;;;;19.48;2.05;;;;;;;;;;6090574;23;20097;-74
2023/01/14 08:34:14;;;;;;;10.65;2.10;;;;;;;;;;6090792;23;20019;-73
2023/01/14 08:36:41;;;;;;;24.67;3.28;;;;;;;;;;6090652;23;20105;-74
2023/01/14 08:39:09;;;;;;;22.17;2.50;;;;;;;;;;6091088;23;20057;-73
2023/01/14 08:41:43;;;;;;;17.33;2.28;;;;;;;;;;6090432;23;20105;-74
2023/01/14 08:44:10;;;;;;;16.63;2.03;;;;;;;;;;6089011;23;20276;-51
2023/01/14 08:46:45;;;;;;;11.13;1.98;;;;;;;;;;6090672;23;20047;-53
2023/01/14 08:49:12;;;;;;;10.65;2.05;;;;;;;;;;6089381;23;20066;-55
2023/01/14 08:51:39;;;;;;;15.23;2.30;;;;;;;;;;6090476;23;20026;-54
2023/01/14 08:54:12;;;;;;;12.15;2.00;;;;;;;;;;6086976;23;20065;-54
2023/01/14 08:56:40;;;;;;;9.93;2.15;;;;;;;;;;6088966;23;20065;-53
2023/01/14 08:59:14;;;;;;;14.45;2.28;;;;;;;;;;6086677;23;20507;-57
2023/01/14 09:01:41;;;;;;;15.45;2.72;;;;;;;;;;6090703;23;20106;-48
2023/01/14 09:04:20;;;;;;;14.13;2.10;;;;;;;;;;6089899;23;20082;-52
2023/01/14 09:18:49;;;;;;;12.60;2.55;;;;;;;;;;6068452;23;20027;-49
2023/01/14 09:21:23;;;;;;;13.25;2.35;;;;;;;;;;6089761;23;20054;-74
2023/01/14 09:23:51;;;;;;;12.55;1.80;;;;;;;;;;6088342;23;20022;-75
2023/01/14 09:26:24;;;;;;;19.50;2.45;;;;;;;;;;6089919;23;20026;-74
2023/01/14 09:28:52;;;;;;;8.63;2.17;;;;;;;;;;6088833;23;20442;-72
2023/01/14 09:31:27;;;;;;;15.82;2.40;;;;;;;;;;6089837;23;20518;-72
2023/01/14 09:33:54;;;;;;;15.52;2.03;;;;;;;;;;6088489;23;20066;-72
2023/01/14 09:36:21;;;;;;;14.65;2.30;;;;;;;;;;6090455;23;20105;-55
2023/01/14 09:38:54;;;;;;;14.95;2.38;;;;;;;;;;6088760;23;20472;-60
2023/01/14 09:41:24;;;;;;;15.25;2.75;;;;;;;;;;6089968;23;20022;-60
2023/01/14 09:43:51;;;;;;;14.68;2.20;;;;;;;;;;6089227;23;20117;-60
2023/01/14 09:46:26;;;;;;;10.20;2.38;;;;;;;;;;6088851;23;20531;-60
2023/01/14 09:48:59;;;;;;;11.57;2.50;;;;;;;;;;6063970;23;20706;-60
2023/01/14 09:51:51;;;;;;;14.75;2.05;;;;;;;;;;6090809;23;20023;-60
2023/01/14 09:54:31;;;;;;;10.88;1.92;;;;;;;;;;6089271;23;20026;-60
2023/01/14 09:57:19;;;;;;;14.80;2.20;;;;;;;;;;6090438;23;20535;-59
2023/01/14 10:00:06;;;;;;;17.17;2.40;;;;;;;;;;6088268;23;20054;-60
2023/01/14 10:02:52;;;;;;;15.13;1.75;;;;;;;;;;6089088;23;20105;-60
2023/01/14 10:05:20;;;;;;;15.77;2.40;;;;;;;;;;6088737;23;20022;-60
2023/01/14 10:07:54;;;;;;;12.48;2.30;;;;;;;;;;6089290;23;20101;-60
2023/01/14 10:10:26;;;;;;;19.83;2.20;;;;;;;;;;6087977;23;20302;-59
2023/01/14 10:13:02;;;;;;;15.27;2.08;;;;;;;;;;6088928;23;20030;-51
2023/01/14 10:15:29;;;;;;;12.30;1.77;;;;;;;;;;6089436;23;20018;-68
2023/01/14 10:17:59;;;;;;;20.05;2.28;;;;;;;;;;6088619;23;20031;-68
2023/01/14 10:20:43;;;;;;;14.55;2.25;;;;;;;;;;6089336;23;20334;-69
2023/01/14 10:23:12;;;;;;;13.10;2.90;;;;;;;;;;6088536;23;20368;-68
2023/01/14 10:25:48;;;;;;;17.95;3.15;;;;;;;;;;6090743;23;20376;-69
2023/01/14 10:28:16;;;;;;;11.60;2.25;;;;;;;;;;6088302;23;20101;-69
2023/01/14 10:30:44;;;;;;;18.15;2.60;;;;;;;;;;6088724;23;20042;-50
2023/01/14 10:33:20;;;;;;;14.30;2.55;;;;;;;;;;6087985;23;20066;-59
2023/01/14 10:35:54;;;;;;;17.63;2.20;;;;;;;;;;6087883;23;20421;-60
2023/01/14 10:38:29;;;;;;;15.73;1.90;;;;;;;;;;6088207;23;20056;-60
2023/01/14 10:40:56;;;;;;;;;;;;;;;;;;6089575;23;20022;-60
2023/01/14 10:43:29;;;;;;;11.35;2.20;;;;;;;;;;6086180;23;19917;-60
2023/01/14 10:46:05;;;;;;;16.63;2.45;;;;;;;;;;6087996;23;20028;-61
2023/01/14 10:48:40;;;;;;;20.33;2.65;;;;;;;;;;6089541;23;20036;-60
2023/01/14 10:51:34;;;;;;;8.95;2.08;;;;;;;;;;6089031;23;20022;-69
2023/01/14 10:54:12;;;;;;;16.20;2.78;;;;;;;;;;6087643;23;20026;-68
2023/01/14 10:56:42;;;;;;;10.30;2.42;;;;;;;;;;6089049;23;20432;-69
2023/01/14 10:59:31;;;;;;;12.40;2.10;;;;;;;;;;6087727;23;20473;-69
2023/01/14 11:01:58;;;;;;;12.50;1.70;;;;;;;;;;6089063;23;20053;-68
2023/01/14 11:04:47;;;;;;;10.35;2.00;;;;;;;;;;6067413;23;20034;-68
2023/01/14 11:07:29;;;;;;;17.48;2.40;;;;;;;;;;6088242;23;20022;-60
2023/01/14 11:10:16;;;;;;;13.48;2.38;;;;;;;;;;6089187;23;20105;-46
2023/01/14 11:12:43;;;;;;;11.48;2.95;;;;;;;;;;6087779;23;20699;-47
2023/01/14 11:15:35;;;;;;;14.38;2.70;;;;;;;;;;6089278;23;20030;-49
2023/01/14 11:18:26;;;;;;;17.40;3.17;;;;;;;;;;6087868;23;20033;-46
2023/01/14 11:21:08;;;;;;;18.65;2.67;;;;;;;;;;6087232;23;20086;-47
2023/01/14 11:23:40;;;;;;;18.23;2.33;;;;;;;;;;6087762;23;20035;-47
2023/01/14 11:26:37;;;;;;;19.48;2.28;;;;;;;;;;6087759;23;20050;-59
2023/01/14 11:29:08;;;;;;;15.15;2.20;;;;;;;;;;6077421;23;20097;-51
2023/01/14 11:31:42;;;;;;;19.83;3.03;;;;;;;;;;6086814;23;20030;-49
2023/01/14 11:34:19;;;;;;;13.10;2.10;;;;;;;;;;6087475;23;20104;-54
2023/01/14 11:37:01;;;;;;;21.25;2.55;;;;;;;;;;6089414;23;20121;-51
2023/01/14 11:39:28;;;;;;;17.45;2.53;;;;;;;;;;6062423;23;20022;-51
2023/01/14 11:42:20;;;;;;;27.05;2.95;;;;;;;;;;6087964;23;20041;-52
2023/01/14 11:45:00;;;;;;;19.02;2.55;;;;;;;;;;6090788;23;20050;-50
2023/01/14 11:47:45;;;;;;;20.95;2.88;;;;;;;;;;6090271;23;20105;-70
2023/01/14 11:50:12;;;;;;;;;;;;;;;;;;6090560;23;20097;-70
2023/01/14 11:52:57;;;;;;;20.92;2.83;;;;;;;;;;6090811;23;19957;-70
2023/01/14 11:55:26;;;;;;;12.98;2.33;;;;;;;;;;6089244;23;20515;-70
2023/01/14 11:58:16;;;;;;;21.88;2.55;;;;;;;;;;6089782;23;20109;-71
2023/01/14 12:00:48;;;;;;;15.63;2.53;;;;;;;;;;6091367;23;20052;-71
2023/01/14 12:03:48;;;;;;;22.23;2.67;;;;;;;;;;6090097;23;20026;-72
2023/01/14 12:06:21;;;;;;;21.13;2.85;;;;;;;;;;6085977;23;20367;-72
2023/01/14 12:08:56;;;;;;;24.80;2.72;;;;;;;;;;6090330;23;20367;-72
2023/01/14 12:11:27;;;;;;;29.50;3.80;;;;;;;;;;6089547;23;20544;-74
2023/01/14 12:16:59;;;;;;;28.13;4.03;;;;;;;;;;6090520;23;20018;-73
2023/01/14 12:19:39;;;;;;;35.75;3.92;;;;;;;;;;6088967;23;20038;-72
2023/01/14 12:36:24;;;;;;;33.25;4.60;;;;;;;;;;6084589;23;20221;-60
2023/01/14 12:47:51;;;;;;;27.63;3.75;;;;;;;;;;6088402;23;20575;-73
2023/01/14 12:50:18;;;;;;;28.30;4.55;;;;;;;;;;6088238;23;20105;-73
2023/01/14 12:52:52;;;;;;;28.48;3.80;;;;;;;;;;6090010;23;20056;-74
2023/01/14 12:55:40;;;;;;;27.95;4.32;;;;;;;;;;6087571;23;20032;-74
2023/01/14 12:58:15;;;;;;;29.80;3.15;;;;;;;;;;6090203;23;20816;-60
2023/01/14 13:00:58;;;;;;;32.70;2.83;;;;;;;;;;6090050;23;20610;-61
2023/01/14 13:03:26;;;;;;;15.55;3.17;;;;;;;;;;6088747;23;20037;-61
2023/01/14 13:06:27;;;;;;;23.73;3.05;;;;;;;;;;6089809;23;20030;-61
2023/01/14 13:09:02;;;;;;;25.13;3.85;;;;;;;;;;6059885;23;20329;-61
2023/01/14 13:11:39;;;;;;;23.65;3.78;;;;;;;;;;6090252;23;20407;-60
2023/01/14 13:14:35;;;;;;;23.58;3.15;;;;;;;;;;6089045;23;20026;-60
2023/01/14 13:17:05;;;;;;;22.60;3.80;;;;;;;;;;6088294;23;20026;-61
2023/01/14 13:19:57;;;;;;;24.70;3.30;;;;;;;;;;6087317;23;20486;-60
2023/01/14 13:22:50;;;;;;;23.50;3.22;;;;;;;;;;6089329;23;20110;-60
2023/01/14 13:25:36;;;;;;;26.92;3.13;;;;;;;;;;6088208;23;20026;-60
2023/01/14 13:28:13;;;;;;;28.17;3.35;;;;;;;;;;6088029;23;20101;-61
2023/01/14 13:31:13;;;;;;;28.00;3.55;;;;;;;;;;6090096;23;20037;-61
2023/01/14 13:33:40;;;;;;;25.63;3.58;;;;;;;;;;6087957;23;20109;-60
2023/01/14 13:36:17;;;;;;;25.63;3.10;;;;;;;;;;6078242;23;20057;-60
2023/01/14 13:38:58;;;;;;;20.88;3.15;;;;;;;;;;6088686;23;20102;-71
2023/01/14 13:41:38;;;;;;;28.13;3.45;;;;;;;;;;6088894;23;20026;-74
2023/01/14 13:44:14;;;;;;;10.52;2.55;;;;;;;;;;6089188;23;20022;-74
2023/01/14 13:46:50;;;;;;;31.08;3.42;;;;;;;;;;6085941;23;20105;-74
2023/01/14 13:49:41;;;;;;;33.88;3.05;;;;;;;;;;6087563;23;20042;-71
2023/01/14 13:52:25;;;;;;;28.75;3.22;;;;;;;;;;6088494;23;20045;-75
2023/01/14 13:54:58;;;;;;;27.67;3.33;;;;;;;;;;6088389;23;20472;-54
2023/01/14 13:57:36;;;;;;;22.45;3.78;;;;;;;;;;6088672;23;20022;-58
2023/01/14 14:00:07;;;;;;;25.10;3.15;;;;;;;;;;6088525;23;20356;-59
2023/01/14 14:02:44;;;;;;;26.60;3.07;;;;;;;;;;6088423;23;20046;-58
2023/01/14 14:05:17;;;;;;;24.20;3.30;;;;;;;;;;6088842;23;20360;-58
2023/01/14 14:08:09;;;;;;;35.15;3.45;;;;;;;;;;6089069;23;20105;-58
2023/01/14 14:10:40;;;;;;;29.02;4.18;;;;;;;;;;6086285;23;20046;-59
2023/01/14 14:16:17;;;;;;;27.15;4.60;;;;;;;;;;6088755;23;20129;-74
2023/01/14 14:19:19;;;;;;;32.40;3.53;;;;;;;;;;6089350;23;20026;-75
2023/01/14 14:22:16;;;;;;;27.45;3.60;;;;;;;;;;6088979;23;20036;-75
2023/01/14 14:24:53;;;;;;;26.52;4.10;;;;;;;;;;6064915;23;20022;-75
2023/01/14 14:27:34;;;;;;;27.50;3.28;;;;;;;;;;6089698;23;20129;-75
2023/01/14 14:30:11;;;;;;;23.50;3.35;;;;;;;;;;6089326;23;20381;-51
2023/01/14 14:32:43;;;;;;;24.42;3.15;;;;;;;;;;6088397;23;20034;-70
2023/01/14 14:35:21;;;;;;;31.40;4.03;;;;;;;;;;6075671;23;20555;-70
2023/01/14 14:37:49;;;;;;;28.10;3.50;;;;;;;;;;6087758;23;20619;-70
2023/01/14 14:40:27;;;;;;;25.13;3.58;;;;;;;;;;6089363;23;20109;-70
2023/01/14 14:42:55;;;;;;;30.83;3.60;;;;;;;;;;6089169;23;20112;-70
2023/01/14 14:45:22;;;;;;;;;;;;;;;;;;6087763;23;20030;-70
2023/01/14 14:47:56;;;;;;;25.50;3.80;;;;;;;;;;6087426;23;20132;-47
2023/01/14 14:50:33;;;;;;;28.77;6.18;;;;;;;;;;6088808;23;20097;-70
2023/01/14 14:53:07;;;;;;;;;;;;;;;;;;6089263;23;20030;-75
2023/01/14 14:55:49;;;;;;;49.97;19.88;;;;;;;;;;6079958;23;19917;-76
2023/01/14 14:58:18;;;;;;;34.50;9.70;;;;;;;;;;6089071;23;20032;-78
2023/01/14 15:00:56;;;;;;;29.20;6.78;;;;;;;;;;6087596;23;20499;-77
2023/01/14 15:03:24;;;;;;;22.88;5.05;;;;;;;;;;6087867;23;20648;-78
2023/01/14 15:05:52;;;;;;;34.95;6.30;;;;;;;;;;6088066;23;20030;-75
2023/01/14 15:08:28;;;;;;;39.20;7.53;;;;;;;;;;6088454;23;20026;-60
2023/01/14 15:10:58;;;;;;;28.50;4.32;;;;;;;;;;6087015;23;20026;-76
2023/01/14 15:13:34;;;;;;;28.00;7.20;;;;;;;;;;6088659;23;20194;-77
2023/01/14 15:16:03;;;;;;;36.15;7.45;;;;;;;;;;6087219;23;20102;-76
2023/01/14 15:18:47;;;;;;;49.90;18.83;;;;;;;;;;6080583;23;20034;-77
2023/01/14 15:21:23;;;;;;;39.40;11.45;;;;;;;;;;6064042;23;20073;-77
2023/01/14 15:23:52;;;;;;;27.38;5.05;;;;;;;;;;6089923;23;20093;-76
2023/01/14 15:26:28;;;;;;;28.27;6.70;;;;;;;;;;6088014;23;20026;-58
2023/01/14 15:28:57;;;;;;;24.10;4.90;;;;;;;;;;6088575;23;20436;-61
2023/01/14 15:31:34;;;;;;;39.30;7.60;;;;;;;;;;6090490;23;20105;-61
2023/01/14 15:34:17;;;;;;;32.15;8.38;;;;;;;;;;6091613;23;20036;-61
2023/01/14 15:36:46;;;;;;;28.10;6.03;;;;;;;;;;6088537;23;20030;-61
2023/01/14 15:39:20;;;;;;;24.58;4.80;;;;;;;;;;6088805;23;20844;-61
2023/01/14 15:41:52;;;;;;;71.30;34.17;;;;;;;;;;6090295;23;20057;-61
2023/01/14 15:44:24;;;;;;;30.98;7.10;;;;;;;;;;6090250;23;20040;-47
2023/01/14 15:46:58;;;;;;;22.35;7.00;;;;;;;;;;6085318;23;20027;-58
2023/01/14 15:49:25;;;;;;;;;;;;;;;;;;6088251;23;20114;-59
2023/01/14 15:52:00;;;;;;;24.83;4.05;;;;;;;;;;6086742;23;19921;-59
2023/01/14 15:54:33;;;;;;;30.45;4.75;;;;;;;;;;6084954;23;20422;-59
2023/01/14 15:57:16;;;;;;;43.42;5.43;;;;;;;;;;6086875;23;20109;-58
2023/01/14 16:00:03;;;;;;;26.25;3.75;;;;;;;;;;6087090;23;20363;-59
2023/01/14 16:02:37;;;;;;;31.08;4.47;;;;;;;;;;6085644;23;20077;-77
2023/01/14 16:05:23;;;;;;;32.05;5.13;;;;;;;;;;6085275;23;20108;-46
2023/01/14 16:07:51;;;;;;;35.72;3.75;;;;;;;;;;6087062;23;20089;-46
2023/01/14 16:10:25;;;;;;;34.08;5.55;;;;;;;;;;6086278;23;20506;-48
2023/01/14 16:12:53;;;;;;;27.33;3.17;;;;;;;;;;6086684;23;20086;-47
2023/01/14 16:15:22;;;;;;;30.90;4.45;;;;;;;;;;6086284;23;20089;-47
2023/01/14 16:18:06;;;;;;;30.45;3.90;;;;;;;;;;6086692;23;20030;-46
2023/01/14 16:20:46;;;;;;;30.92;4.28;;;;;;;;;;6056896;23;20027;-48
2023/01/14 16:23:21;;;;;;;32.05;10.70;;;;;;;;;;6057113;23;20106;-60
2023/01/14 16:26:02;;;;;;;32.22;4.47;;;;;;;;;;6056927;23;20031;-60
2023/01/14 16:28:37;;;;;;;27.67;3.92;;;;;;;;;;6059394;23;20029;-60
2023/01/14 16:31:04;;;;;;;27.58;6.28;;;;;;;;;;6056931;23;20058;-60
2023/01/14 16:33:31;;;;;;;37.45;4.82;;;;;;;;;;6057795;23;20079;-60
2023/01/14 16:36:06;;;;;;;30.35;4.70;;;;;;;;;;6058205;23;20353;-60
2023/01/14 16:38:40;;;;;;;21.50;3.72;;;;;;;;;;6056939;23;20030;-70